sensor_id;sensor_type;location;lat;lon;timestamp;P1;durP1;ratioP1;P2;durP2;ratioP2
80681;SDS011;70045;40.200;44.582;2023-05-14T00:00:53;10.10;;;3.17;;
80681;SDS011;70045;40.200;44.582;2023-05-14T00:03:19;8.50;;;3.60;;
80681;SDS011;70045;40.200;44.582;2023-05-14T00:05:44;7.32;;;3.50;;
80681;SDS011;70045;40.200;44.582;2023-05-14T00:08:13;8.32;;;3.78;;
80681;SDS011;70045;40.200;44.582;2023-05-14T00:10:38;11.02;;;3.95;;
80681;SDS011;70045;40.200;44.582;2023-05-14T00:13:04;8.50;;;4.03;;
80681;SDS011;70045;40.200;44.582;2023-05-14T00:15:32;8.05;;;4.03;;
80681;SDS011;70045;40.200;44.582;2023-05-14T00:18:01;8.57;;;3.42;;
80681;SDS011;70045;40.200;44.582;2023-05-14T00:20:27;8.55;;;3.30;;
80681;SDS011;70045;40.200;44.582;2023-05-14T00:22:53;10.77;;;4.10;;
80681;SDS011;70045;40.200;44.582;2023-05-14T00:25:18;9.23;;;4.55;;
80681;SDS011;70045;40.200;44.582;2023-05-14T00:27:47;12.27;;;4.75;;
80681;SDS011;70045;40.200;44.582;2023-05-14T00:30:12;8.50;;;5.28;;
80681;SDS011;70045;40.200;44.582;2023-05-14T00:32:38;9.68;;;4.90;;
80681;SDS011;70045;40.200;44.582;2023-05-14T00:35:04;12.18;;;5.45;;
80681;SDS011;70045;40.200;44.582;2023-05-14T00:37:30;11.15;;;5.03;;
80681;SDS011;70045;40.200;44.582;2023-05-14T00:39:56;10.05;;;4.43;;
80681;SDS011;70045;40.200;44.582;2023-05-14T00:42:25;9.10;;;4.55;;
80681;SDS011;70045;40.200;44.582;2023-05-14T00:44:50;10.48;;;5.15;;
80681;SDS011;70045;40.200;44.582;2023-05-14T00:47:16;10.82;;;5.40;;
80681;SDS011;70045;40.200;44.582;2023-05-14T00:49:42;11.48;;;5.45;;
80681;SDS011;70045;40.200;44.582;2023-05-14T00:52:08;8.38;;;4.75;;
80681;SDS011;70045;40.200;44.582;2023-05-14T00:54:41;9.07;;;4.72;;
80681;SDS011;70045;40.200;44.582;2023-05-14T00:57:11;10.73;;;4.47;;
80681;SDS011;70045;40.200;44.582;2023-05-14T00:59:37;9.55;;;5.35;;
80681;SDS011;70045;40.200;44.582;2023-05-14T01:02:05;10.10;;;4.80;;
80681;SDS011;70045;40.200;44.582;2023-05-14T01:04:31;9.43;;;4.30;;
80681;SDS011;70045;40.200;44.582;2023-05-14T01:07:08;8.48;;;4.03;;
80681;SDS011;70045;40.200;44.582;2023-05-14T01:13:09;11.45;;;3.97;;
80681;SDS011;70045;40.200;44.582;2023-05-14T01:15:36;10.68;;;4.28;;
80681;SDS011;70045;40.200;44.582;2023-05-14T01:18:10;9.48;;;4.00;;
80681;SDS011;70045;40.200;44.582;2023-05-14T01:20:41;8.80;;;4.63;;
80681;SDS011;70045;40.200;44.582;2023-05-14T01:23:07;14.05;;;4.20;;
80681;SDS011;70045;40.200;44.582;2023-05-14T01:25:36;6.75;;;3.80;;
80681;SDS011;70045;40.200;44.582;2023-05-14T01:28:23;8.70;;;3.95;;
80681;SDS011;70045;40.200;44.582;2023-05-14T01:30:56;8.05;;;4.20;;
80681;SDS011;70045;40.200;44.582;2023-05-14T01:33:26;10.10;;;4.32;;
80681;SDS011;70045;40.200;44.582;2023-05-14T01:35:53;10.52;;;4.38;;
80681;SDS011;70045;40.200;44.582;2023-05-14T01:38:19;8.13;;;4.18;;
80681;SDS011;70045;40.200;44.582;2023-05-14T01:40:47;7.85;;;4.28;;
80681;SDS011;70045;40.200;44.582;2023-05-14T01:43:14;9.48;;;4.53;;
80681;SDS011;70045;40.200;44.582;2023-05-14T01:45:41;10.40;;;4.78;;
80681;SDS011;70045;40.200;44.582;2023-05-14T01:48:07;10.65;;;4.65;;
80681;SDS011;70045;40.200;44.582;2023-05-14T01:50:33;8.38;;;4.45;;
80681;SDS011;70045;40.200;44.582;2023-05-14T01:52:59;9.13;;;4.45;;
80681;SDS011;70045;40.200;44.582;2023-05-14T01:55:24;8.23;;;4.88;;
80681;SDS011;70045;40.200;44.582;2023-05-14T01:57:51;10.00;;;5.30;;
80681;SDS011;70045;40.200;44.582;2023-05-14T02:00:17;9.20;;;5.20;;
80681;SDS011;70045;40.200;44.582;2023-05-14T02:02:43;9.52;;;5.32;;
80681;SDS011;70045;40.200;44.582;2023-05-14T02:05:09;10.10;;;5.60;;
80681;SDS011;70045;40.200;44.582;2023-05-14T02:07:36;9.80;;;4.75;;
80681;SDS011;70045;40.200;44.582;2023-05-14T02:10:02;7.72;;;4.40;;
80681;SDS011;70045;40.200;44.582;2023-05-14T02:12:28;12.18;;;4.82;;
80681;SDS011;70045;40.200;44.582;2023-05-14T02:14:54;12.63;;;4.60;;
80681;SDS011;70045;40.200;44.582;2023-05-14T02:17:20;7.70;;;4.25;;
80681;SDS011;70045;40.200;44.582;2023-05-14T02:19:45;11.07;;;5.53;;
80681;SDS011;70045;40.200;44.582;2023-05-14T02:22:11;16.60;;;8.07;;
80681;SDS011;70045;40.200;44.582;2023-05-14T02:24:37;18.23;;;10.25;;
80681;SDS011;70045;40.200;44.582;2023-05-14T02:27:03;17.58;;;9.90;;
80681;SDS011;70045;40.200;44.582;2023-05-14T02:29:28;21.40;;;11.65;;
80681;SDS011;70045;40.200;44.582;2023-05-14T02:31:57;22.92;;;11.88;;
80681;SDS011;70045;40.200;44.582;2023-05-14T02:34:23;25.45;;;11.95;;
80681;SDS011;70045;40.200;44.582;2023-05-14T02:36:49;22.65;;;11.63;;
80681;SDS011;70045;40.200;44.582;2023-05-14T02:39:15;22.35;;;10.80;;
80681;SDS011;70045;40.200;44.582;2023-05-14T02:41:40;21.42;;;11.32;;
80681;SDS011;70045;40.200;44.582;2023-05-14T02:44:06;22.83;;;12.55;;
80681;SDS011;70045;40.200;44.582;2023-05-14T02:46:34;24.40;;;13.10;;
80681;SDS011;70045;40.200;44.582;2023-05-14T02:49:00;23.23;;;11.90;;
80681;SDS011;70045;40.200;44.582;2023-05-14T02:51:26;23.60;;;12.10;;
80681;SDS011;70045;40.200;44.582;2023-05-14T02:53:55;27.33;;;13.00;;
80681;SDS011;70045;40.200;44.582;2023-05-14T02:56:20;22.00;;;11.60;;
80681;SDS011;70045;40.200;44.582;2023-05-14T02:58:46;23.45;;;11.57;;
80681;SDS011;70045;40.200;44.582;2023-05-14T03:01:12;22.70;;;11.88;;
80681;SDS011;70045;40.200;44.582;2023-05-14T03:03:37;20.55;;;10.40;;
80681;SDS011;70045;40.200;44.582;2023-05-14T03:06:04;15.85;;;7.75;;
80681;SDS011;70045;40.200;44.582;2023-05-14T03:08:29;12.90;;;7.35;;
80681;SDS011;70045;40.200;44.582;2023-05-14T03:11:01;10.00;;;5.13;;
80681;SDS011;70045;40.200;44.582;2023-05-14T03:13:27;10.20;;;5.40;;
80681;SDS011;70045;40.200;44.582;2023-05-14T03:15:52;8.63;;;4.43;;
80681;SDS011;70045;40.200;44.582;2023-05-14T03:18:21;8.05;;;3.50;;
80681;SDS011;70045;40.200;44.582;2023-05-14T03:20:47;8.45;;;3.22;;
80681;SDS011;70045;40.200;44.582;2023-05-14T03:23:15;7.07;;;3.03;;
80681;SDS011;70045;40.200;44.582;2023-05-14T03:25:41;7.22;;;2.97;;
80681;SDS011;70045;40.200;44.582;2023-05-14T03:28:15;6.18;;;2.65;;
80681;SDS011;70045;40.200;44.582;2023-05-14T03:30:44;5.00;;;2.58;;
80681;SDS011;70045;40.200;44.582;2023-05-14T03:33:10;4.28;;;2.50;;
80681;SDS011;70045;40.200;44.582;2023-05-14T03:35:35;5.70;;;2.70;;
80681;SDS011;70045;40.200;44.582;2023-05-14T03:38:01;4.25;;;2.15;;
80681;SDS011;70045;40.200;44.582;2023-05-14T03:40:26;5.15;;;2.70;;
80681;SDS011;70045;40.200;44.582;2023-05-14T03:43:00;7.22;;;2.85;;
80681;SDS011;70045;40.200;44.582;2023-05-14T03:45:26;4.53;;;2.47;;
80681;SDS011;70045;40.200;44.582;2023-05-14T03:47:58;4.57;;;2.60;;
80681;SDS011;70045;40.200;44.582;2023-05-14T03:50:24;5.47;;;2.80;;
80681;SDS011;70045;40.200;44.582;2023-05-14T03:52:50;5.50;;;2.67;;
80681;SDS011;70045;40.200;44.582;2023-05-14T03:55:16;8.13;;;2.70;;
80681;SDS011;70045;40.200;44.582;2023-05-14T03:57:49;3.80;;;2.58;;
80681;SDS011;70045;40.200;44.582;2023-05-14T04:00:17;4.22;;;2.20;;
80681;SDS011;70045;40.200;44.582;2023-05-14T04:02:43;5.00;;;2.33;;
80681;SDS011;70045;40.200;44.582;2023-05-14T04:05:11;4.50;;;2.47;;
80681;SDS011;70045;40.200;44.582;2023-05-14T04:07:39;4.68;;;2.53;;
80681;SDS011;70045;40.200;44.582;2023-05-14T04:10:14;4.60;;;2.20;;
80681;SDS011;70045;40.200;44.582;2023-05-14T04:12:39;5.68;;;2.40;;
80681;SDS011;70045;40.200;44.582;2023-05-14T04:15:08;6.45;;;2.58;;
80681;SDS011;70045;40.200;44.582;2023-05-14T04:17:34;4.97;;;2.30;;
80681;SDS011;70045;40.200;44.582;2023-05-14T04:20:15;4.25;;;2.38;;
80681;SDS011;70045;40.200;44.582;2023-05-14T04:22:45;5.65;;;2.75;;
80681;SDS011;70045;40.200;44.582;2023-05-14T04:25:10;4.13;;;2.60;;
80681;SDS011;70045;40.200;44.582;2023-05-14T04:27:36;5.45;;;2.30;;
80681;SDS011;70045;40.200;44.582;2023-05-14T04:30:02;4.60;;;2.30;;
80681;SDS011;70045;40.200;44.582;2023-05-14T04:32:27;5.90;;;2.97;;
80681;SDS011;70045;40.200;44.582;2023-05-14T04:34:53;6.00;;;2.40;;
80681;SDS011;70045;40.200;44.582;2023-05-14T04:37:37;4.82;;;2.50;;
80681;SDS011;70045;40.200;44.582;2023-05-14T04:40:03;6.13;;;2.70;;
80681;SDS011;70045;40.200;44.582;2023-05-14T04:42:29;4.93;;;2.47;;
80681;SDS011;70045;40.200;44.582;2023-05-14T04:44:58;5.25;;;2.50;;
80681;SDS011;70045;40.200;44.582;2023-05-14T04:47:23;8.13;;;2.65;;
80681;SDS011;70045;40.200;44.582;2023-05-14T04:49:51;9.27;;;2.85;;
80681;SDS011;70045;40.200;44.582;2023-05-14T04:52:37;6.18;;;2.92;;
80681;SDS011;70045;40.200;44.582;2023-05-14T04:55:03;6.70;;;2.83;;
80681;SDS011;70045;40.200;44.582;2023-05-14T04:57:29;7.00;;;2.83;;
80681;SDS011;70045;40.200;44.582;2023-05-14T04:59:55;7.25;;;3.10;;
80681;SDS011;70045;40.200;44.582;2023-05-14T05:02:29;4.45;;;2.50;;
80681;SDS011;70045;40.200;44.582;2023-05-14T05:04:56;5.00;;;2.53;;
80681;SDS011;70045;40.200;44.582;2023-05-14T05:07:21;5.22;;;2.95;;
80681;SDS011;70045;40.200;44.582;2023-05-14T05:09:56;6.70;;;2.60;;
80681;SDS011;70045;40.200;44.582;2023-05-14T05:12:25;4.93;;;2.30;;
80681;SDS011;70045;40.200;44.582;2023-05-14T05:14:50;5.18;;;2.45;;
80681;SDS011;70045;40.200;44.582;2023-05-14T05:17:16;4.10;;;2.13;;
80681;SDS011;70045;40.200;44.582;2023-05-14T05:19:44;5.53;;;3.00;;
80681;SDS011;70045;40.200;44.582;2023-05-14T05:22:13;6.97;;;3.10;;
80681;SDS011;70045;40.200;44.582;2023-05-14T05:24:45;7.43;;;3.00;;
80681;SDS011;70045;40.200;44.582;2023-05-14T05:27:14;5.97;;;2.60;;
80681;SDS011;70045;40.200;44.582;2023-05-14T05:29:39;7.05;;;2.60;;
80681;SDS011;70045;40.200;44.582;2023-05-14T05:32:08;5.15;;;2.78;;
80681;SDS011;70045;40.200;44.582;2023-05-14T05:34:34;7.63;;;3.10;;
80681;SDS011;70045;40.200;44.582;2023-05-14T05:36:59;7.13;;;2.85;;
80681;SDS011;70045;40.200;44.582;2023-05-14T05:39:34;5.82;;;2.60;;
80681;SDS011;70045;40.200;44.582;2023-05-14T05:42:00;5.35;;;2.60;;
80681;SDS011;70045;40.200;44.582;2023-05-14T05:44:26;5.63;;;2.67;;
80681;SDS011;70045;40.200;44.582;2023-05-14T05:46:51;7.43;;;3.50;;
80681;SDS011;70045;40.200;44.582;2023-05-14T05:49:20;7.43;;;3.72;;
80681;SDS011;70045;40.200;44.582;2023-05-14T05:51:46;5.10;;;3.00;;
80681;SDS011;70045;40.200;44.582;2023-05-14T05:54:11;6.55;;;3.05;;
80681;SDS011;70045;40.200;44.582;2023-05-14T05:56:40;7.32;;;2.97;;
80681;SDS011;70045;40.200;44.582;2023-05-14T05:59:05;6.43;;;3.20;;
80681;SDS011;70045;40.200;44.582;2023-05-14T06:01:31;7.05;;;3.35;;
80681;SDS011;70045;40.200;44.582;2023-05-14T06:04:07;6.30;;;3.00;;
80681;SDS011;70045;40.200;44.582;2023-05-14T06:06:36;7.28;;;3.33;;
80681;SDS011;70045;40.200;44.582;2023-05-14T06:09:09;7.93;;;3.53;;
80681;SDS011;70045;40.200;44.582;2023-05-14T06:11:35;6.40;;;3.17;;
80681;SDS011;70045;40.200;44.582;2023-05-14T06:14:06;8.18;;;3.22;;
80681;SDS011;70045;40.200;44.582;2023-05-14T06:16:31;6.88;;;3.03;;
80681;SDS011;70045;40.200;44.582;2023-05-14T06:19:03;6.53;;;3.33;;
80681;SDS011;70045;40.200;44.582;2023-05-14T06:21:34;8.10;;;3.33;;
80681;SDS011;70045;40.200;44.582;2023-05-14T06:24:00;8.32;;;3.85;;
80681;SDS011;70045;40.200;44.582;2023-05-14T06:26:29;7.82;;;3.25;;
80681;SDS011;70045;40.200;44.582;2023-05-14T06:28:56;7.07;;;3.03;;
80681;SDS011;70045;40.200;44.582;2023-05-14T06:31:28;6.00;;;3.33;;
80681;SDS011;70045;40.200;44.582;2023-05-14T06:33:54;7.88;;;3.50;;
80681;SDS011;70045;40.200;44.582;2023-05-14T06:36:19;6.72;;;2.80;;
80681;SDS011;70045;40.200;44.582;2023-05-14T06:38:45;6.88;;;2.90;;
80681;SDS011;70045;40.200;44.582;2023-05-14T06:41:10;6.25;;;2.88;;
80681;SDS011;70045;40.200;44.582;2023-05-14T06:43:36;6.00;;;3.05;;
80681;SDS011;70045;40.200;44.582;2023-05-14T06:46:02;5.85;;;2.90;;
80681;SDS011;70045;40.200;44.582;2023-05-14T06:48:33;5.55;;;2.60;;
80681;SDS011;70045;40.200;44.582;2023-05-14T06:50:58;6.35;;;2.63;;
80681;SDS011;70045;40.200;44.582;2023-05-14T06:53:24;5.90;;;2.90;;
80681;SDS011;70045;40.200;44.582;2023-05-14T06:55:50;5.95;;;3.42;;
80681;SDS011;70045;40.200;44.582;2023-05-14T06:58:15;8.95;;;3.97;;
80681;SDS011;70045;40.200;44.582;2023-05-14T07:00:41;8.55;;;5.05;;
80681;SDS011;70045;40.200;44.582;2023-05-14T07:03:12;10.25;;;4.60;;
80681;SDS011;70045;40.200;44.582;2023-05-14T07:05:41;8.77;;;4.10;;
80681;SDS011;70045;40.200;44.582;2023-05-14T07:08:07;5.63;;;3.30;;
80681;SDS011;70045;40.200;44.582;2023-05-14T07:10:33;9.45;;;2.80;;
80681;SDS011;70045;40.200;44.582;2023-05-14T07:12:59;7.32;;;2.90;;
80681;SDS011;70045;40.200;44.582;2023-05-14T07:15:24;4.00;;;2.25;;
80681;SDS011;70045;40.200;44.582;2023-05-14T07:17:53;4.65;;;2.13;;
80681;SDS011;70045;40.200;44.582;2023-05-14T07:20:19;4.80;;;1.88;;
80681;SDS011;70045;40.200;44.582;2023-05-14T07:22:51;4.05;;;2.00;;
80681;SDS011;70045;40.200;44.582;2023-05-14T07:25:23;3.45;;;2.03;;
80681;SDS011;70045;40.200;44.582;2023-05-14T07:27:48;3.65;;;1.98;;
80681;SDS011;70045;40.200;44.582;2023-05-14T07:30:14;5.28;;;2.13;;
80681;SDS011;70045;40.200;44.582;2023-05-14T07:32:40;4.13;;;1.50;;
80681;SDS011;70045;40.200;44.582;2023-05-14T07:35:06;1.23;;;0.82;;
80681;SDS011;70045;40.200;44.582;2023-05-14T07:37:31;1.27;;;0.40;;
80681;SDS011;70045;40.200;44.582;2023-05-14T07:39:57;1.58;;;0.50;;
80681;SDS011;70045;40.200;44.582;2023-05-14T07:42:23;1.02;;;0.43;;
80681;SDS011;70045;40.200;44.582;2023-05-14T07:44:48;1.48;;;0.80;;
80681;SDS011;70045;40.200;44.582;2023-05-14T07:47:19;1.80;;;1.33;;
80681;SDS011;70045;40.200;44.582;2023-05-14T07:49:46;2.50;;;0.80;;
80681;SDS011;70045;40.200;44.582;2023-05-14T07:52:11;0.70;;;0.47;;
80681;SDS011;70045;40.200;44.582;2023-05-14T07:54:40;0.57;;;0.40;;
80681;SDS011;70045;40.200;44.582;2023-05-14T07:57:06;1.02;;;0.40;;
80681;SDS011;70045;40.200;44.582;2023-05-14T07:59:31;0.20;;;0.20;;
80681;SDS011;70045;40.200;44.582;2023-05-14T08:02:00;1.30;;;0.20;;
80681;SDS011;70045;40.200;44.582;2023-05-14T08:04:26;1.00;;;0.28;;
80681;SDS011;70045;40.200;44.582;2023-05-14T08:06:52;2.00;;;0.30;;
80681;SDS011;70045;40.200;44.582;2023-05-14T08:09:20;0.52;;;0.20;;
80681;SDS011;70045;40.200;44.582;2023-05-14T08:11:46;0.15;;;0.15;;
80681;SDS011;70045;40.200;44.582;2023-05-14T08:14:16;1.70;;;0.30;;
80681;SDS011;70045;40.200;44.582;2023-05-14T08:16:41;1.13;;;0.43;;
80681;SDS011;70045;40.200;44.582;2023-05-14T08:19:07;0.93;;;0.28;;
80681;SDS011;70045;40.200;44.582;2023-05-14T08:21:33;1.95;;;0.80;;
80681;SDS011;70045;40.200;44.582;2023-05-14T08:23:58;2.92;;;0.77;;
80681;SDS011;70045;40.200;44.582;2023-05-14T08:26:25;0.80;;;0.80;;
80681;SDS011;70045;40.200;44.582;2023-05-14T08:28:51;0.85;;;0.50;;
80681;SDS011;70045;40.200;44.582;2023-05-14T08:31:17;1.20;;;0.60;;
80681;SDS011;70045;40.200;44.582;2023-05-14T08:33:43;2.25;;;0.70;;
80681;SDS011;70045;40.200;44.582;2023-05-14T08:36:12;1.60;;;0.63;;
80681;SDS011;70045;40.200;44.582;2023-05-14T08:38:38;5.90;;;0.70;;
80681;SDS011;70045;40.200;44.582;2023-05-14T08:41:05;2.80;;;0.85;;
80681;SDS011;70045;40.200;44.582;2023-05-14T08:46:12;3.13;;;0.60;;
80681;SDS011;70045;40.200;44.582;2023-05-14T08:48:41;4.35;;;0.80;;
80681;SDS011;70045;40.200;44.582;2023-05-14T08:51:10;1.38;;;0.68;;
80681;SDS011;70045;40.200;44.582;2023-05-14T08:53:39;1.02;;;0.70;;
80681;SDS011;70045;40.200;44.582;2023-05-14T08:56:16;1.08;;;0.82;;
80681;SDS011;70045;40.200;44.582;2023-05-14T08:58:45;0.90;;;0.70;;
80681;SDS011;70045;40.200;44.582;2023-05-14T09:01:24;3.92;;;0.82;;
80681;SDS011;70045;40.200;44.582;2023-05-14T09:06:31;1.45;;;0.70;;
80681;SDS011;70045;40.200;44.582;2023-05-14T09:09:41;5.28;;;1.25;;
80681;SDS011;70045;40.200;44.582;2023-05-14T09:32:49;3.65;;;1.27;;
80681;SDS011;70045;40.200;44.582;2023-05-14T10:19:12;0.90;;;0.63;;
80681;SDS011;70045;40.200;44.582;2023-05-14T10:21:55;1.85;;;1.27;;
80681;SDS011;70045;40.200;44.582;2023-05-14T10:27:10;5.90;;;2.70;;
80681;SDS011;70045;40.200;44.582;2023-05-14T10:29:46;3.67;;;1.85;;
80681;SDS011;70045;40.200;44.582;2023-05-14T10:37:26;1.17;;;0.70;;
80681;SDS011;70045;40.200;44.582;2023-05-14T10:39:57;1.00;;;0.90;;
80681;SDS011;70045;40.200;44.582;2023-05-14T10:42:33;2.70;;;1.20;;
80681;SDS011;70045;40.200;44.582;2023-05-14T10:45:11;2.53;;;0.80;;
80681;SDS011;70045;40.200;44.582;2023-05-14T10:47:39;4.75;;;0.60;;
80681;SDS011;70045;40.200;44.582;2023-05-14T10:50:10;1.20;;;0.52;;
80681;SDS011;70045;40.200;44.582;2023-05-14T10:52:42;4.47;;;0.50;;
80681;SDS011;70045;40.200;44.582;2023-05-14T10:55:13;4.95;;;1.00;;
80681;SDS011;70045;40.200;44.582;2023-05-14T10:57:41;3.78;;;1.92;;
80681;SDS011;70045;40.200;44.582;2023-05-14T11:00:08;0.80;;;0.80;;
80681;SDS011;70045;40.200;44.582;2023-05-14T11:02:37;7.13;;;2.90;;
80681;SDS011;70045;40.200;44.582;2023-05-14T11:05:05;1.55;;;1.05;;
80681;SDS011;70045;40.200;44.582;2023-05-14T11:10:04;2.70;;;0.95;;
80681;SDS011;70045;40.200;44.582;2023-05-14T11:12:34;4.97;;;0.80;;
80681;SDS011;70045;40.200;44.582;2023-05-14T11:15:05;3.60;;;1.17;;
80681;SDS011;70045;40.200;44.582;2023-05-14T11:35:28;1.88;;;0.75;;
80681;SDS011;70045;40.200;44.582;2023-05-14T11:58:47;2.25;;;0.70;;
80681;SDS011;70045;40.200;44.582;2023-05-14T12:01:31;1.13;;;0.90;;
80681;SDS011;70045;40.200;44.582;2023-05-14T12:04:04;2.13;;;0.80;;
80681;SDS011;70045;40.200;44.582;2023-05-14T12:12:10;1.10;;;0.60;;
80681;SDS011;70045;40.200;44.582;2023-05-14T12:14:41;1.05;;;0.63;;
80681;SDS011;70045;40.200;44.582;2023-05-14T12:17:11;0.85;;;0.47;;
80681;SDS011;70045;40.200;44.582;2023-05-14T12:19:42;3.40;;;0.73;;
80681;SDS011;70045;40.200;44.582;2023-05-14T12:22:12;0.65;;;0.57;;
80681;SDS011;70045;40.200;44.582;2023-05-14T12:24:51;0.68;;;0.28;;
80681;SDS011;70045;40.200;44.582;2023-05-14T12:27:20;0.88;;;0.60;;
80681;SDS011;70045;40.200;44.582;2023-05-14T12:29:46;0.40;;;0.40;;
80681;SDS011;70045;40.200;44.582;2023-05-14T12:32:15;1.15;;;0.38;;
80681;SDS011;70045;40.200;44.582;2023-05-14T12:34:44;0.40;;;0.40;;
80681;SDS011;70045;40.200;44.582;2023-05-14T12:37:10;2.63;;;0.80;;
80681;SDS011;70045;40.200;44.582;2023-05-14T12:39:38;0.50;;;0.40;;
80681;SDS011;70045;40.200;44.582;2023-05-14T12:42:04;1.00;;;0.65;;
80681;SDS011;70045;40.200;44.582;2023-05-14T12:44:30;3.80;;;1.10;;
80681;SDS011;70045;40.200;44.582;2023-05-14T12:46:56;2.45;;;0.85;;
80681;SDS011;70045;40.200;44.582;2023-05-14T12:49:21;4.28;;;1.25;;
80681;SDS011;70045;40.200;44.582;2023-05-14T12:51:48;4.18;;;0.80;;
80681;SDS011;70045;40.200;44.582;2023-05-14T12:54:14;2.17;;;0.57;;
80681;SDS011;70045;40.200;44.582;2023-05-14T12:56:45;1.80;;;0.70;;
80681;SDS011;70045;40.200;44.582;2023-05-14T13:02:06;1.33;;;1.00;;
80681;SDS011;70045;40.200;44.582;2023-05-14T13:04:38;3.38;;;0.70;;
80681;SDS011;70045;40.200;44.582;2023-05-14T13:07:04;5.00;;;0.60;;
80681;SDS011;70045;40.200;44.582;2023-05-14T13:09:30;0.70;;;0.30;;
80681;SDS011;70045;40.200;44.582;2023-05-14T13:11:55;4.10;;;0.80;;
80681;SDS011;70045;40.200;44.582;2023-05-14T13:14:21;1.15;;;0.57;;
80681;SDS011;70045;40.200;44.582;2023-05-14T13:16:47;1.77;;;0.60;;
80681;SDS011;70045;40.200;44.582;2023-05-14T13:19:13;1.13;;;0.70;;
80681;SDS011;70045;40.200;44.582;2023-05-14T13:21:39;1.70;;;0.50;;
80681;SDS011;70045;40.200;44.582;2023-05-14T13:24:12;3.25;;;1.15;;
80681;SDS011;70045;40.200;44.582;2023-05-14T13:26:38;1.70;;;0.80;;
80681;SDS011;70045;40.200;44.582;2023-05-14T13:29:05;2.42;;;0.70;;
80681;SDS011;70045;40.200;44.582;2023-05-14T13:31:31;4.05;;;0.68;;
80681;SDS011;70045;40.200;44.582;2023-05-14T13:33:57;2.10;;;0.63;;
80681;SDS011;70045;40.200;44.582;2023-05-14T13:36:23;1.50;;;0.70;;
80681;SDS011;70045;40.200;44.582;2023-05-14T13:38:49;2.35;;;1.00;;
80681;SDS011;70045;40.200;44.582;2023-05-14T13:41:15;5.10;;;1.30;;
80681;SDS011;70045;40.200;44.582;2023-05-14T13:43:41;4.85;;;1.13;;
80681;SDS011;70045;40.200;44.582;2023-05-14T13:46:07;3.20;;;1.25;;
80681;SDS011;70045;40.200;44.582;2023-05-14T13:48:33;3.03;;;0.82;;
80681;SDS011;70045;40.200;44.582;2023-05-14T13:51:03;3.20;;;1.45;;
80681;SDS011;70045;40.200;44.582;2023-05-14T13:53:41;3.80;;;1.45;;
80681;SDS011;70045;40.200;44.582;2023-05-14T13:56:06;3.92;;;1.30;;
80681;SDS011;70045;40.200;44.582;2023-05-14T13:58:35;2.72;;;1.15;;
80681;SDS011;70045;40.200;44.582;2023-05-14T14:01:01;1.63;;;0.80;;
80681;SDS011;70045;40.200;44.582;2023-05-14T14:06:09;1.52;;;0.98;;
80681;SDS011;70045;40.200;44.582;2023-05-14T14:08:38;1.80;;;1.58;;
80681;SDS011;70045;40.200;44.582;2023-05-14T14:13:42;5.32;;;3.40;;
80681;SDS011;70045;40.200;44.582;2023-05-14T14:21:19;6.10;;;2.28;;
80681;SDS011;70045;40.200;44.582;2023-05-14T14:23:45;6.65;;;1.60;;
80681;SDS011;70045;40.200;44.582;2023-05-14T14:26:11;4.05;;;1.50;;
80681;SDS011;70045;40.200;44.582;2023-05-14T14:28:37;4.85;;;1.67;;
80681;SDS011;70045;40.200;44.582;2023-05-14T14:31:03;3.42;;;1.48;;
80681;SDS011;70045;40.200;44.582;2023-05-14T14:33:28;4.78;;;1.42;;
80681;SDS011;70045;40.200;44.582;2023-05-14T14:35:56;4.28;;;1.75;;
80681;SDS011;70045;40.200;44.582;2023-05-14T14:41:02;3.22;;;1.38;;
80681;SDS011;70045;40.200;44.582;2023-05-14T14:43:46;3.45;;;1.58;;
80681;SDS011;70045;40.200;44.582;2023-05-14T14:46:12;1.90;;;1.10;;
80681;SDS011;70045;40.200;44.582;2023-05-14T14:48:38;3.67;;;1.27;;
80681;SDS011;70045;40.200;44.582;2023-05-14T14:53:45;5.80;;;1.58;;
80681;SDS011;70045;40.200;44.582;2023-05-14T14:56:12;3.60;;;1.23;;
80681;SDS011;70045;40.200;44.582;2023-05-14T15:13:42;4.10;;;1.52;;
80681;SDS011;70045;40.200;44.582;2023-05-14T15:29:09;3.40;;;1.42;;
80681;SDS011;70045;40.200;44.582;2023-05-14T15:31:38;2.80;;;1.45;;
80681;SDS011;70045;40.200;44.582;2023-05-14T15:34:04;3.88;;;1.50;;
80681;SDS011;70045;40.200;44.582;2023-05-14T15:36:30;2.50;;;1.08;;
80681;SDS011;70045;40.200;44.582;2023-05-14T15:39:00;2.35;;;0.90;;
80681;SDS011;70045;40.200;44.582;2023-05-14T15:41:27;2.05;;;1.10;;
80681;SDS011;70045;40.200;44.582;2023-05-14T15:46:43;2.15;;;0.90;;
80681;SDS011;70045;40.200;44.582;2023-05-14T16:38:17;2.20;;;1.15;;
80681;SDS011;70045;40.200;44.582;2023-05-14T16:40:46;2.90;;;1.08;;
80681;SDS011;70045;40.200;44.582;2023-05-14T16:43:16;2.42;;;0.80;;
80681;SDS011;70045;40.200;44.582;2023-05-14T16:45:48;1.83;;;0.80;;
80681;SDS011;70045;40.200;44.582;2023-05-14T16:50:56;2.30;;;0.77;;
80681;SDS011;70045;40.200;44.582;2023-05-14T17:11:35;0.38;;;0.38;;
80681;SDS011;70045;40.200;44.582;2023-05-14T17:14:20;0.30;;;0.30;;
80681;SDS011;70045;40.200;44.582;2023-05-14T17:16:45;0.50;;;0.50;;
80681;SDS011;70045;40.200;44.582;2023-05-14T20:10:33;1.20;;;0.70;;
80681;SDS011;70045;40.200;44.582;2023-05-14T20:12:59;1.27;;;0.60;;
80681;SDS011;70045;40.200;44.582;2023-05-14T20:15:36;1.40;;;0.47;;
80681;SDS011;70045;40.200;44.582;2023-05-14T20:25:57;1.60;;;0.55;;
80681;SDS011;70045;40.200;44.582;2023-05-14T20:46:45;2.17;;;1.02;;
80681;SDS011;70045;40.200;44.582;2023-05-14T20:49:26;0.85;;;0.47;;
80681;SDS011;70045;40.200;44.582;2023-05-14T20:51:55;0.32;;;0.32;;
80681;SDS011;70045;40.200;44.582;2023-05-14T20:54:23;0.60;;;0.40;;
80681;SDS011;70045;40.200;44.582;2023-05-14T20:56:49;1.00;;;0.40;;
80681;SDS011;70045;40.200;44.582;2023-05-14T20:59:15;0.50;;;0.50;;
80681;SDS011;70045;40.200;44.582;2023-05-14T21:01:41;0.70;;;0.38;;
80681;SDS011;70045;40.200;44.582;2023-05-14T21:04:07;0.22;;;0.22;;
80681;SDS011;70045;40.200;44.582;2023-05-14T21:06:36;0.57;;;0.30;;
80681;SDS011;70045;40.200;44.582;2023-05-14T21:09:02;0.85;;;0.40;;
80681;SDS011;70045;40.200;44.582;2023-05-14T21:11:27;0.80;;;0.43;;
80681;SDS011;70045;40.200;44.582;2023-05-14T21:13:53;0.47;;;0.30;;
80681;SDS011;70045;40.200;44.582;2023-05-14T21:16:34;0.95;;;0.32;;
80681;SDS011;70045;40.200;44.582;2023-05-14T21:19:03;0.35;;;0.20;;
80681;SDS011;70045;40.200;44.582;2023-05-14T21:21:36;0.30;;;0.20;;
80681;SDS011;70045;40.200;44.582;2023-05-14T21:24:02;0.38;;;0.20;;
80681;SDS011;70045;40.200;44.582;2023-05-14T21:26:31;0.43;;;0.43;;
80681;SDS011;70045;40.200;44.582;2023-05-14T21:28:57;0.55;;;0.35;;
80681;SDS011;70045;40.200;44.582;2023-05-14T21:31:31;0.30;;;0.22;;
80681;SDS011;70045;40.200;44.582;2023-05-14T21:34:00;0.75;;;0.38;;
80681;SDS011;70045;40.200;44.582;2023-05-14T21:36:26;0.20;;;0.20;;
80681;SDS011;70045;40.200;44.582;2023-05-14T21:38:52;0.57;;;0.32;;
80681;SDS011;70045;40.200;44.582;2023-05-14T21:41:21;0.32;;;0.20;;
80681;SDS011;70045;40.200;44.582;2023-05-14T21:43:50;0.85;;;0.30;;
80681;SDS011;70045;40.200;44.582;2023-05-14T21:46:18;2.08;;;0.38;;
80681;SDS011;70045;40.200;44.582;2023-05-14T21:48:50;0.22;;;0.20;;
80681;SDS011;70045;40.200;44.582;2023-05-14T21:51:16;1.30;;;0.20;;
80681;SDS011;70045;40.200;44.582;2023-05-14T21:53:41;0.28;;;0.20;;
80681;SDS011;70045;40.200;44.582;2023-05-14T21:56:07;0.55;;;0.43;;
80681;SDS011;70045;40.200;44.582;2023-05-14T21:58:38;1.42;;;0.60;;
80681;SDS011;70045;40.200;44.582;2023-05-14T22:01:04;1.50;;;0.60;;
80681;SDS011;70045;40.200;44.582;2023-05-14T22:03:36;2.95;;;0.80;;